Time;durP1;ratioP1;P1;durP2;ratioP2;P2;SDS_P1;SDS_P2;PMS_P1;PMS_P2;Temp;Humidity;BMP_temperature;BMP_pressure;BME280_temperature;BME280_humidity;BME280_pressure;Samples;Min_cycle;Max_cycle;Signal;HPM_P1;HPM_P2
2021/12/07 00:02:06;;;;;;;52.53;32.15;;;;;;;3.07;100.00;98950.06;1727661;83;21094;-70
2021/12/07 00:04:34;;;;;;;53.73;31.27;;;;;;;3.12;100.00;98946.75;1724444;83;21003;-76
2021/12/07 00:07:00;;;;;;;43.58;27.62;;;;;;;3.15;100.00;98941.02;1724565;83;21524;-77
2021/12/07 00:09:28;;;;;;;43.40;26.15;;;;;;;3.19;100.00;98955.99;1733245;81;20928;-77
2021/12/07 00:11:56;;;;;;;40.05;22.70;;;;;;;3.20;100.00;98954.45;1702661;82;20984;-79
2021/12/07 00:14:33;;;;;;;30.85;23.87;;;;;;;3.22;100.00;98950.23;1703613;83;21030;-79
2021/12/07 00:16:54;;;;;;;47.45;27.07;;;;;;;3.24;100.00;98950.83;1723603;83;21005;-76
2021/12/07 00:19:21;;;;;;;43.40;28.47;;;;;;;3.24;100.00;98952.98;1723545;83;21087;-74
2021/12/07 00:21:47;;;;;;;51.55;29.95;;;;;;;3.27;100.00;98955.18;1704484;81;21508;-77
2021/12/07 00:24:14;;;;;;;59.50;37.45;;;;;;;3.34;100.00;98955.13;1737773;81;21019;-75
2021/12/07 00:26:42;;;;;;;60.80;34.53;;;;;;;3.31;100.00;98954.25;1732916;81;21048;-73
2021/12/07 00:29:09;;;;;;;53.87;33.73;;;;;;;3.29;100.00;98952.31;1715546;81;21099;-79
2021/12/07 00:31:45;;;;;;;60.28;35.05;;;;;;;3.26;100.00;98944.25;1725896;83;22393;-78
2021/12/07 00:34:18;;;;;;;39.00;24.65;;;;;;;3.27;100.00;98955.69;1722350;83;21048;-78
2021/12/07 00:36:44;;;;;;;69.00;39.55;;;;;;;3.25;100.00;98957.27;1724879;81;20908;-81
2021/12/07 00:39:14;;;;;;;83.20;49.60;;;;;;;3.24;100.00;98950.83;1718974;82;21109;-75
2021/12/07 00:41:40;;;;;;;69.15;42.98;;;;;;;3.27;100.00;98954.36;1755540;81;21095;-77
2021/12/07 00:44:07;;;;;;;67.90;37.17;;;;;;;3.28;100.00;98943.53;1734851;81;21063;-77
2021/12/07 00:46:34;;;;;;;48.98;32.78;;;;;;;3.25;100.00;98936.01;1735768;81;21592;-73
2021/12/07 00:49:01;;;;;;;60.25;34.30;;;;;;;3.24;100.00;98937.03;1718671;82;21353;-74
2021/12/07 00:51:27;;;;;;;53.95;31.80;;;;;;;3.24;100.00;98941.02;1719478;82;20951;-74
2021/12/07 00:53:54;;;;;;;54.25;34.18;;;;;;;3.24;100.00;98946.33;1714053;81;21032;-76
2021/12/07 00:56:21;;;;;;;64.87;36.73;;;;;;;3.25;100.00;98946.63;1740696;81;21131;-75
2021/12/07 00:58:48;;;;;;;55.43;30.52;;;;;;;3.26;100.00;98948.23;1737232;81;21501;-74
2021/12/07 01:01:17;;;;;;;35.75;23.10;;;;;;;3.29;100.00;98945.16;1705342;84;21021;-73
2021/12/07 01:03:44;;;;;;;28.32;20.80;;;;;;;3.37;100.00;98941.37;1704947;84;21043;-75
2021/12/07 01:06:21;;;;;;;38.53;23.00;;;;;;;3.44;100.00;98948.77;1704733;84;21052;-76
2021/12/07 01:25:09;;;;;;;35.10;23.00;;;;;;;3.53;100.00;98951.42;1732058;81;20960;-75
2021/12/07 01:27:36;;;;;;;26.35;17.12;;;;;;;3.57;100.00;98953.12;1777952;79;20941;-75
2021/12/07 01:30:14;;;;;;;27.77;17.02;;;;;;;3.57;100.00;98957.11;1734646;81;21037;-74
2021/12/07 01:32:48;;;;;;;26.77;16.25;;;;;;;3.55;100.00;98951.22;1733826;82;20934;-75
2021/12/07 01:35:43;;;;;;;22.00;15.45;;;;;;;3.55;100.00;98940.03;1731373;82;21483;-75
2021/12/07 01:43:24;;;;;;;25.68;16.07;;;;;;;3.72;100.00;98943.73;1728674;82;21175;-75
2021/12/07 01:51:10;;;;;;;19.48;13.32;;;;;;;3.81;100.00;98948.22;1728994;81;21044;-79
2021/12/07 02:01:33;;;;;;;43.70;30.23;;;;;;;3.87;100.00;98946.81;1671571;85;21082;-77
2021/12/07 02:04:00;;;;;;;24.87;16.27;;;;;;;3.71;100.00;98958.56;1681640;83;21013;-79
2021/12/07 02:06:26;;;;;;;23.92;13.25;;;;;;;3.81;100.00;98958.34;1689258;84;21560;-78
2021/12/07 02:08:53;;;;;;;28.07;17.15;;;;;;;3.81;100.00;98958.34;1717991;82;21593;-78
2021/12/07 02:11:19;;;;;;;28.60;16.90;;;;;;;3.95;100.00;98958.97;1675422;84;21575;-76
2021/12/07 02:16:12;;;;;;;39.42;22.75;;;;;;;4.04;100.00;98948.83;1675364;84;21004;-76
2021/12/07 02:18:40;;;;;;;47.65;28.47;;;;;;;3.94;100.00;98948.84;1702691;83;21044;-77
2021/12/07 02:21:19;;;;;;;23.95;15.15;;;;;;;3.79;100.00;98941.00;1723927;82;21609;-77
2021/12/07 02:23:46;;;;;;;23.12;13.55;;;;;;;3.73;100.00;98939.22;1723506;83;21127;-78
2021/12/07 02:26:14;;;;;;;18.95;12.47;;;;;;;3.77;100.00;98934.56;1724353;82;21087;-76
2021/12/07 02:28:41;;;;;;;21.12;12.95;;;;;;;3.83;100.00;98940.84;1716785;82;21074;-79
2021/12/07 02:31:08;;;;;;;20.57;13.20;;;;;;;3.87;100.00;98940.16;1707862;82;20992;-78
2021/12/07 02:33:35;;;;;;;21.95;12.65;;;;;;;3.91;100.00;98950.64;1747056;80;21059;-77
2021/12/07 02:36:02;;;;;;;24.57;14.60;;;;;;;3.90;100.00;98960.98;1779086;80;21051;-79
2021/12/07 02:38:29;;;;;;;28.57;16.12;;;;;;;3.93;100.00;98952.54;1770762;80;21044;-77
2021/12/07 02:40:55;;;;;;;24.50;17.25;;;;;;;3.92;100.00;98960.77;1724024;82;20984;-78
2021/12/07 02:43:22;;;;;;;21.42;13.18;;;;;;;3.93;100.00;98967.72;1736338;82;21017;-78
2021/12/07 02:45:48;;;;;;;25.02;14.53;;;;;;;3.97;100.00;98980.86;1706326;82;21095;-78
2021/12/07 02:48:15;;;;;;;30.72;16.12;;;;;;;3.97;100.00;98974.72;1648572;84;21101;-77
2021/12/07 02:50:41;;;;;;;29.67;18.57;;;;;;;3.94;100.00;98972.79;1647877;86;21056;-79
2021/12/07 02:53:08;;;;;;;27.98;16.95;;;;;;;3.96;100.00;98976.56;1619575;87;21052;-76
2021/12/07 02:55:34;;;;;;;22.90;14.18;;;;;;;3.92;100.00;98964.23;1667332;85;21087;-76
2021/12/07 02:58:02;;;;;;;35.35;19.77;;;;;;;3.92;100.00;98964.23;1675459;84;21089;-78
2021/12/07 03:00:37;;;;;;;31.50;18.85;;;;;;;3.88;100.00;98978.21;1676903;84;20988;-78
2021/12/07 03:03:07;;;;;;;25.95;15.95;;;;;;;3.81;100.00;98971.63;1666106;85;21161;-78
2021/12/07 03:08:28;;;;;;;26.57;16.15;;;;;;;3.79;100.00;98966.26;1676687;85;21585;-77
2021/12/07 03:27:10;;;;;;;25.88;16.35;;;;;;;3.45;100.00;98958.38;1667562;86;21075;-77
2021/12/07 03:29:37;;;;;;;23.18;14.70;;;;;;;3.43;100.00;98951.13;1664246;84;21154;-78
2021/12/07 03:32:04;;;;;;;18.60;13.38;;;;;;;3.41;100.00;98956.66;1724326;83;21506;-78
2021/12/07 03:34:33;;;;;;;22.32;13.48;;;;;;;3.41;100.00;98956.66;1688669;84;21000;-77
2021/12/07 03:37:00;;;;;;;24.90;13.70;;;;;;;3.37;100.00;98948.02;1704352;84;21045;-77
2021/12/07 03:39:29;;;;;;;23.90;16.23;;;;;;;3.31;100.00;98955.57;1665169;85;21372;-77
2021/12/07 03:41:57;;;;;;;18.73;13.55;;;;;;;3.26;100.00;98954.09;1664492;85;21060;-78
2021/12/07 03:44:24;;;;;;;24.52;15.70;;;;;;;3.23;100.00;98952.67;1669466;85;21049;-76
2021/12/07 03:46:50;;;;;;;30.55;17.92;;;;;;;3.21;100.00;98951.28;1634187;86;21591;-75
2021/12/07 03:49:17;;;;;;;24.12;15.95;;;;;;;3.20;100.00;98957.63;1659653;85;21036;-75
2021/12/07 03:51:44;;;;;;;21.15;13.48;;;;;;;3.21;100.00;98966.71;1641116;86;21123;-76
2021/12/07 03:54:12;;;;;;;22.70;13.65;;;;;;;3.24;100.00;98982.20;1668644;84;21036;-77
2021/12/07 03:56:39;;;;;;;25.82;13.95;;;;;;;3.23;100.00;98989.88;1683888;85;21077;-75
2021/12/07 03:59:06;;;;;;;27.15;17.07;;;;;;;3.23;100.00;98989.88;1659421;86;21108;-77
2021/12/07 04:01:33;;;;;;;20.75;15.38;;;;;;;3.18;100.00;98991.05;1683453;84;21021;-77
2021/12/07 04:04:02;;;;;;;28.65;18.27;;;;;;;3.15;100.00;98980.87;1644665;87;21547;-76
2021/12/07 04:06:28;;;;;;;26.73;15.83;;;;;;;3.12;100.00;98995.89;1646796;86;21124;-77
2021/12/07 04:08:55;;;;;;;23.32;14.47;;;;;;;3.10;100.00;98997.98;1648780;85;20989;-77
2021/12/07 04:11:21;;;;;;;23.10;15.90;;;;;;;3.12;100.00;98991.12;1670291;85;21039;-77
2021/12/07 04:13:48;;;;;;;18.23;13.45;;;;;;;3.12;100.00;98991.12;1655795;85;21541;-77
2021/12/07 04:16:17;;;;;;;18.60;12.35;;;;;;;3.14;100.00;98994.36;1674394;85;21079;-77
2021/12/07 04:18:45;;;;;;;20.92;15.75;;;;;;;3.13;100.00;98991.39;1662258;85;21183;-77
2021/12/07 04:21:11;;;;;;;18.90;12.75;;;;;;;3.09;100.00;98993.69;1670151;84;21563;-77
2021/12/07 04:23:38;;;;;;;18.75;12.00;;;;;;;3.07;100.00;99004.52;1672372;85;20987;-77
2021/12/07 04:26:09;;;;;;;20.05;14.60;;;;;;;3.06;100.00;99012.22;1674302;85;21066;-77
2021/12/07 04:28:35;;;;;;;18.10;13.10;;;;;;;3.07;100.00;99010.34;1664456;85;21075;-77
2021/12/07 04:31:02;;;;;;;18.20;12.28;;;;;;;3.09;100.00;99006.97;1646835;87;21836;-76
2021/12/07 04:33:30;;;;;;;14.10;11.38;;;;;;;3.13;100.00;99010.81;1646798;87;20983;-77
2021/12/07 04:35:56;;;;;;;14.78;11.95;;;;;;;3.17;100.00;99017.81;1696852;84;21667;-76
2021/12/07 04:38:22;;;;;;;16.35;11.38;;;;;;;3.17;100.00;99013.33;1667331;85;21582;-77
2021/12/07 04:40:49;;;;;;;14.43;9.30;;;;;;;3.17;100.00;99011.99;1646998;85;21027;-79
2021/12/07 04:43:15;;;;;;;13.93;10.93;;;;;;;3.13;100.00;99014.80;1640866;86;21290;-76
2021/12/07 04:58:51;;;;;;;11.68;9.65;;;;;;;3.23;100.00;99055.48;1646085;86;21540;-80
2021/12/07 05:01:18;;;;;;;16.20;11.35;;;;;;;3.24;100.00;99051.80;1664490;86;21036;-78
2021/12/07 05:03:46;;;;;;;13.32;10.23;;;;;;;3.21;100.00;99046.42;1664192;86;21532;-77
2021/12/07 05:06:13;;;;;;;14.93;11.95;;;;;;;3.22;100.00;99044.03;1637500;87;21067;-79
2021/12/07 05:08:46;;;;;;;11.75;10.50;;;;;;;3.23;100.00;99030.23;1620973;87;21072;-77
2021/12/07 05:11:43;;;;;;;19.10;14.03;;;;;;;3.22;100.00;99025.95;1613480;87;21035;-76
2021/12/07 05:16:45;;;;;;;12.53;10.18;;;;;;;3.31;100.00;99032.64;1595771;87;21596;-77
2021/12/07 05:24:36;;;;;;;12.98;10.35;;;;;;;3.44;100.00;99043.95;1690988;83;20960;-78
2021/12/07 05:37:57;;;;;;;17.35;11.95;;;;;;;3.43;100.00;99039.66;1666111;86;21110;-76
2021/12/07 05:40:29;;;;;;;14.73;13.15;;;;;;;3.42;100.00;99035.88;1663874;86;21023;-77
2021/12/07 05:42:56;;;;;;;16.55;12.63;;;;;;;3.37;100.00;99029.08;1678942;84;21733;-76
2021/12/07 05:45:34;;;;;;;15.83;11.68;;;;;;;3.34;100.00;99039.65;1686361;84;22253;-76
2021/12/07 05:47:59;;;;;;;15.13;10.23;;;;;;;3.32;100.00;99043.54;1711401;83;21558;-78
2021/12/07 05:50:28;;;;;;;11.95;10.38;;;;;;;3.29;100.00;99033.36;1686599;82;21064;-79
2021/12/07 05:52:54;;;;;;;11.65;9.18;;;;;;;3.24;100.00;99030.55;1687195;84;20978;-79
2021/12/07 05:55:22;;;;;;;17.92;11.25;;;;;;;3.23;100.00;99039.53;1686166;83;21037;-77
2021/12/07 05:57:48;;;;;;;10.72;8.15;;;;;;;3.21;100.00;99042.44;1646798;86;21635;-77
2021/12/07 06:00:25;;;;;;;13.28;9.53;;;;;;;3.24;100.00;99055.78;1684918;84;21442;-78
2021/12/07 06:03:02;;;;;;;11.18;9.18;;;;;;;3.25;100.00;99061.41;1667707;84;21008;-79
2021/12/07 06:05:29;;;;;;;12.53;10.05;;;;;;;3.18;100.00;99050.00;1660263;83;22303;-77
2021/12/07 06:07:55;;;;;;;16.42;10.75;;;;;;;3.12;100.00;99042.92;1700623;84;21059;-77
2021/12/07 06:10:22;;;;;;;13.28;9.30;;;;;;;3.06;100.00;99040.11;1678779;85;21623;-76
2021/12/07 06:12:48;;;;;;;13.53;9.35;;;;;;;3.03;100.00;99031.73;1605249;88;22263;-78
2021/12/07 06:15:18;;;;;;;12.60;8.83;;;;;;;3.00;100.00;99026.88;1663327;86;21057;-78
2021/12/07 06:17:43;;;;;;;12.80;9.85;;;;;;;2.95;100.00;99022.72;1635674;86;21028;-78
2021/12/07 06:20:10;;;;;;;16.35;10.63;;;;;;;2.93;100.00;99022.93;1648248;87;21178;-82
2021/12/07 06:22:36;;;;;;;19.45;12.58;;;;;;;2.91;100.00;99013.57;1676913;85;21123;-79
2021/12/07 06:25:03;;;;;;;15.10;9.58;;;;;;;2.89;100.00;99016.94;1660077;85;21035;-78
2021/12/07 06:27:30;;;;;;;14.85;10.40;;;;;;;2.87;100.00;99012.38;1726699;82;21061;-76
2021/12/07 06:29:57;;;;;;;17.27;11.53;;;;;;;2.83;100.00;99020.48;1668576;85;21096;-75
2021/12/07 06:32:25;;;;;;;13.65;10.75;;;;;;;2.80;100.00;99022.23;1675577;83;21078;-75
2021/12/07 06:34:51;;;;;;;13.83;9.38;;;;;;;2.80;100.00;99036.32;1678300;84;21050;-76
2021/12/07 06:37:18;;;;;;;13.43;9.18;;;;;;;2.82;100.00;99044.89;1687280;84;21149;-74
2021/12/07 06:39:44;;;;;;;12.30;8.70;;;;;;;2.78;100.00;99044.22;1628015;87;21071;-74
2021/12/07 06:42:11;;;;;;;12.60;8.33;;;;;;;2.74;100.00;99052.28;1651911;84;21220;-75
2021/12/07 06:44:38;;;;;;;11.90;8.23;;;;;;;2.70;100.00;99057.73;1683280;82;21604;-75
2021/12/07 06:47:05;;;;;;;10.88;8.45;;;;;;;2.67;100.00;99066.95;1665005;85;21090;-76
2021/12/07 06:49:32;;;;;;;9.58;7.00;;;;;;;2.69;100.00;99062.22;1671992;85;21124;-76
2021/12/07 06:52:01;;;;;;;8.68;7.08;;;;;;;2.69;100.00;99066.20;1665074;84;21014;-78
2021/12/07 06:54:27;;;;;;;9.50;7.22;;;;;;;2.69;100.00;99077.34;1670030;83;21080;-74
2021/12/07 06:56:53;;;;;;;10.13;7.28;;;;;;;2.68;100.00;99077.06;1715554;82;21039;-75
2021/12/07 06:59:20;;;;;;;11.93;8.13;;;;;;;2.65;100.00;99082.27;1718349;83;21205;-76
2021/12/07 07:01:46;;;;;;;11.60;7.12;;;;;;;2.62;100.00;99084.84;1669333;85;21120;-77
2021/12/07 07:04:14;;;;;;;10.10;6.67;;;;;;;2.64;100.00;99089.92;1743072;82;21384;-78
2021/12/07 07:06:42;;;;;;;10.72;6.97;;;;;;;2.71;100.00;99093.87;1709255;83;20953;-77
2021/12/07 07:09:09;;;;;;;11.18;9.28;;;;;;;2.77;100.00;99101.81;1717353;83;21061;-82
2021/12/07 07:11:37;;;;;;;13.58;8.95;;;;;;;2.83;100.00;99101.48;1717406;83;20990;-77
2021/12/07 07:14:05;;;;;;;13.83;10.32;;;;;;;2.87;100.00;99098.17;1717392;83;20982;-78
2021/12/07 07:16:33;;;;;;;20.25;12.93;;;;;;;2.89;100.00;99101.41;1730470;82;21535;-77
2021/12/07 07:19:00;;;;;;;14.30;11.35;;;;;;;2.90;100.00;99096.91;1747303;81;21448;-79
2021/12/07 07:21:26;;;;;;;15.60;11.33;;;;;;;2.93;100.00;99105.77;1741386;82;21011;-78
2021/12/07 07:23:52;;;;;;;12.80;9.13;;;;;;;2.86;100.00;99101.85;1727795;82;21650;-78
2021/12/07 07:26:19;;;;;;;19.23;11.93;;;;;;;2.78;100.00;99095.98;1716185;82;21593;-78
2021/12/07 07:28:46;;;;;;;18.62;11.90;;;;;;;2.76;100.00;99094.87;1719733;82;21507;-76
2021/12/07 07:31:13;;;;;;;17.10;11.38;;;;;;;2.77;100.00;99094.36;1721963;82;20945;-77
2021/12/07 07:33:39;;;;;;;19.50;10.82;;;;;;;2.73;100.00;99105.92;1652196;85;21040;-75
2021/12/07 07:36:06;;;;;;;17.30;11.33;;;;;;;2.73;100.00;99098.47;1696580;82;21013;-76
2021/12/07 07:38:33;;;;;;;10.38;7.42;;;;;;;2.77;100.00;99091.70;1688796;83;21722;-76
2021/12/07 07:41:00;;;;;;;15.00;8.53;;;;;;;2.78;100.00;99095.45;1710988;82;21503;-79
2021/12/07 07:43:30;;;;;;;10.38;7.45;;;;;;;2.72;100.00;99092.86;1715004;83;21041;-77
2021/12/07 07:45:59;;;;;;;8.08;6.45;;;;;;;2.69;100.00;99098.06;1709313;83;21010;-77
2021/12/07 07:48:26;;;;;;;10.28;6.72;;;;;;;2.69;100.00;99103.38;1688657;85;21068;-79
2021/12/07 07:50:53;;;;;;;9.58;5.97;;;;;;;2.69;100.00;99119.30;1717547;82;21223;-79
2021/12/07 07:53:19;;;;;;;12.50;7.47;;;;;;;2.68;100.00;99126.98;1747064;82;21018;-77
2021/12/07 07:55:46;;;;;;;7.17;5.42;;;;;;;2.65;100.00;99124.73;1694966;84;20993;-78
2021/12/07 07:58:13;;;;;;;7.78;5.47;;;;;;;2.64;100.00;99127.09;1696309;83;21559;-77
2021/12/07 08:00:41;;;;;;;13.70;7.08;;;;;;;2.63;100.00;99120.99;1695353;84;21497;-81
2021/12/07 08:03:09;;;;;;;10.05;6.67;;;;;;;2.61;100.00;99121.70;1695344;84;21083;-82
2021/12/07 08:05:38;;;;;;;7.80;6.30;;;;;;;2.65;100.00;99131.38;1675218;84;21121;-80
2021/12/07 08:08:07;;;;;;;10.13;7.10;;;;;;;2.67;100.00;99123.21;1674257;84;21587;-86
2021/12/07 08:10:33;;;;;;;11.12;9.15;;;;;;;2.63;100.00;99122.31;1719387;82;21522;-81
2021/12/07 08:13:04;;;;;;;11.65;7.00;;;;;;;2.59;100.00;99122.41;1675094;84;21537;-80
2021/12/07 08:15:32;;;;;;;9.08;6.70;;;;;;;2.60;100.00;99118.74;1712066;83;22242;-80
2021/12/07 08:17:58;;;;;;;14.13;9.40;;;;;;;2.59;100.00;99109.14;1723479;83;21050;-80
2021/12/07 08:20:27;;;;;;;10.78;7.47;;;;;;;2.60;100.00;99110.78;1677297;84;21114;-78
2021/12/07 08:22:53;;;;;;;11.25;8.63;;;;;;;2.58;100.00;99099.58;1699649;84;21023;-79
2021/12/07 08:25:19;;;;;;;10.00;7.85;;;;;;;2.57;100.00;99101.11;1699621;84;21075;-78
2021/12/07 08:27:46;;;;;;;13.75;7.87;;;;;;;2.50;100.00;99103.78;1675518;84;21132;-79
2021/12/07 08:30:14;;;;;;;15.32;9.53;;;;;;;2.43;100.00;99098.22;1671360;85;20951;-80
2021/12/07 08:32:44;;;;;;;12.40;7.65;;;;;;;2.41;100.00;99096.28;1650206;85;21070;-81
2021/12/07 08:35:09;;;;;;;15.10;11.22;;;;;;;2.40;100.00;99102.09;1673064;83;21520;-82
2021/12/07 08:37:36;;;;;;;11.45;7.42;;;;;;;2.45;100.00;99103.61;1732105;82;20957;-79
2021/12/07 08:40:05;;;;;;;15.03;9.63;;;;;;;2.45;100.00;99104.11;1724608;83;21911;-80
2021/12/07 08:42:32;;;;;;;16.05;10.75;;;;;;;2.43;100.00;99113.63;1717116;82;21031;-81
2021/12/07 08:44:59;;;;;;;10.15;8.20;;;;;;;2.41;100.00;99114.34;1671075;84;21068;-79
2021/12/07 08:47:25;;;;;;;9.50;7.30;;;;;;;2.42;100.00;99126.59;1665389;85;21155;-79
2021/12/07 08:49:54;;;;;;;13.72;9.93;;;;;;;2.38;100.00;99118.76;1665373;86;20985;-80
2021/12/07 08:52:20;;;;;;;11.93;10.20;;;;;;;2.32;100.00;99109.48;1665487;85;22065;-81
2021/12/07 09:00:05;;;;;;;14.73;10.53;;;;;;;2.30;100.00;99119.01;1665544;85;21012;-84
2021/12/07 09:02:33;;;;;;;18.48;10.53;;;;;;;2.37;100.00;99129.58;1666089;84;21644;-81
2021/12/07 09:04:59;;;;;;;13.93;9.93;;;;;;;2.35;100.00;99121.03;1688958;83;21082;-79
2021/12/07 09:07:28;;;;;;;14.73;11.48;;;;;;;2.31;100.00;99113.16;1688754;84;20976;-81
2021/12/07 09:09:54;;;;;;;17.05;10.53;;;;;;;2.28;100.00;99117.06;1690284;82;20957;-80
2021/12/07 09:12:22;;;;;;;20.52;12.33;;;;;;;2.27;100.00;99114.10;1712617;82;20980;-78
2021/12/07 09:14:52;;;;;;;8.33;7.45;;;;;;;2.27;100.00;99104.81;1717182;83;21065;-79
2021/12/07 09:17:16;;;;;;;9.03;7.15;;;;;;;2.25;100.00;99090.16;1697642;83;21793;-80
2021/12/07 09:19:42;;;;;;;10.95;7.83;;;;;;;2.28;100.00;99086.55;1717650;83;22162;-81
2021/12/07 09:22:09;;;;;;;13.68;9.13;;;;;;;2.22;100.00;99079.43;1717895;83;20999;-78
2021/12/07 09:24:35;;;;;;;11.73;9.25;;;;;;;2.22;100.00;99087.90;1704070;82;21027;-80
2021/12/07 09:27:02;;;;;;;8.63;6.05;;;;;;;2.23;100.00;99083.72;1709906;82;21496;-82
2021/12/07 09:29:28;;;;;;;11.40;8.53;;;;;;;2.21;100.00;99078.34;1687535;83;21725;-81
2021/12/07 09:31:55;;;;;;;11.38;8.13;;;;;;;2.19;100.00;99071.91;1711455;83;20965;-79
2021/12/07 09:34:21;;;;;;;12.10;8.60;;;;;;;2.26;100.00;99077.16;1711538;83;21094;-82
2021/12/07 09:36:48;;;;;;;7.78;5.78;;;;;;;2.27;100.00;99074.82;1690228;83;20985;-80
2021/12/07 09:39:16;;;;;;;8.03;5.80;;;;;;;2.25;100.00;99090.97;1717976;82;21045;-73
2021/12/07 09:41:42;;;;;;;11.50;6.75;;;;;;;2.23;100.00;99087.70;1701850;83;21095;-74
2021/12/07 09:44:09;;;;;;;10.85;8.60;;;;;;;2.18;100.00;99093.64;1686726;83;21088;-74
2021/12/07 09:46:36;;;;;;;9.88;7.50;;;;;;;2.17;100.00;99086.70;1691066;83;21508;-74
2021/12/07 09:49:04;;;;;;;10.80;6.97;;;;;;;2.23;100.00;99080.25;1705171;83;21036;-75
2021/12/07 09:51:31;;;;;;;10.00;6.60;;;;;;;2.18;100.00;99084.86;1718476;83;21029;-77
2021/12/07 09:53:57;;;;;;;6.60;5.03;;;;;;;2.18;100.00;99072.92;1722090;82;22280;-80
2021/12/07 09:56:24;;;;;;;8.23;7.20;;;;;;;2.14;100.00;99083.66;1709698;83;21014;-77
2021/12/07 09:58:51;;;;;;;7.12;5.95;;;;;;;2.14;100.00;99075.70;1714037;81;21009;-77
2021/12/07 10:01:18;;;;;;;6.70;5.67;;;;;;;2.17;100.00;99067.31;1730878;81;20988;-76
2021/12/07 10:03:44;;;;;;;6.47;5.87;;;;;;;2.08;100.00;99073.38;1684398;82;21073;-78
2021/12/07 10:06:14;;;;;;;5.35;4.75;;;;;;;2.08;100.00;99076.53;1736199;82;21130;-85
2021/12/07 10:08:43;;;;;;;7.17;5.80;;;;;;;2.09;100.00;99073.69;1703847;83;20965;-83
2021/12/07 10:11:12;;;;;;;6.03;5.37;;;;;;;2.11;100.00;99079.58;1724575;83;21486;-82
2021/12/07 10:13:42;;;;;;;5.65;4.55;;;;;;;2.12;100.00;99081.72;1717986;82;21029;-73
2021/12/07 10:16:12;;;;;;;9.58;8.10;;;;;;;2.21;100.00;99078.34;1721962;83;21013;-71
2021/12/07 10:18:39;;;;;;;6.25;5.67;;;;;;;2.25;100.00;99073.72;1703628;83;22290;-71
2021/12/07 10:21:23;;;;;;;7.00;6.33;;;;;;;2.29;100.00;99079.41;1719592;82;21513;-72
2021/12/07 10:23:55;;;;;;;7.25;6.25;;;;;;;2.23;100.00;99093.00;1699979;83;21009;-88
2021/12/07 10:26:29;;;;;;;5.40;4.90;;;;;;;2.17;100.00;99092.51;1722031;82;20968;-85
2021/12/07 10:29:22;;;;;;;5.08;4.65;;;;;;;2.15;100.00;99099.38;1700924;82;21047;-84
2021/12/07 10:31:52;;;;;;;8.80;7.47;;;;;;;2.16;100.00;99100.98;1707754;83;22005;-75
2021/12/07 10:34:22;;;;;;;10.53;7.72;;;;;;;2.20;100.00;99104.05;1705972;83;20982;-74
2021/12/07 10:37:09;;;;;;;13.72;6.90;;;;;;;2.24;100.00;99097.80;1725182;83;21029;-74
2021/12/07 10:39:45;;;;;;;7.20;6.33;;;;;;;2.29;100.00;99095.33;1719946;81;21025;-76
2021/12/07 10:42:25;;;;;;;9.85;6.92;;;;;;;2.28;100.00;99089.20;1698844;84;21044;-87
2021/12/07 10:44:52;;;;;;;5.78;4.35;;;;;;;2.22;100.00;99087.39;1700723;84;21222;-81
2021/12/07 10:47:21;;;;;;;6.25;5.37;;;;;;;2.11;100.00;99084.09;1691683;82;20965;-78
2021/12/07 10:50:08;;;;;;;7.08;5.00;;;;;;;2.10;100.00;99089.09;1734669;82;20956;-80
2021/12/07 10:52:40;;;;;;;8.83;4.40;;;;;;;2.05;100.00;99078.29;1733458;81;20929;-78
2021/12/07 10:55:16;;;;;;;5.37;4.85;;;;;;;2.03;100.00;99080.33;1705257;84;21493;-76
2021/12/07 10:57:54;;;;;;;6.80;4.72;;;;;;;2.00;100.00;99072.30;1649562;85;21208;-80
2021/12/07 11:00:29;;;;;;;5.80;4.75;;;;;;;1.96;100.00;99063.64;1671776;85;21603;-81
2021/12/07 11:03:07;;;;;;;5.37;4.67;;;;;;;1.91;100.00;99062.95;1671537;85;21066;-82
2021/12/07 11:05:50;;;;;;;5.42;4.72;;;;;;;1.87;100.00;99066.23;1671830;85;21058;-82
2021/12/07 11:08:19;;;;;;;4.75;4.33;;;;;;;1.86;100.00;99078.66;1690428;84;21088;-82
2021/12/07 11:10:50;;;;;;;5.90;5.10;;;;;;;1.91;100.00;99078.86;1662064;84;21129;-78
2021/12/07 11:13:33;;;;;;;5.58;5.12;;;;;;;1.88;100.00;99075.27;1696240;84;21013;-77
2021/12/07 11:16:01;;;;;;;4.97;4.58;;;;;;;1.92;100.00;99074.38;1696683;83;20996;-77
2021/12/07 11:18:32;;;;;;;6.70;5.53;;;;;;;1.92;100.00;99065.88;1678776;84;21478;-77
2021/12/07 11:21:03;;;;;;;14.38;8.88;;;;;;;1.89;100.00;99075.59;1706641;81;21003;-76
2021/12/07 11:23:38;;;;;;;10.18;7.47;;;;;;;1.85;100.00;99071.73;1716187;81;21142;-81
2021/12/07 11:31:56;;;;;;;9.47;6.70;;;;;;;1.98;100.00;99082.79;1697680;84;21023;-73
2021/12/07 11:34:30;;;;;;;7.55;5.67;;;;;;;2.07;100.00;99085.51;1699737;83;21297;-72
2021/12/07 11:37:05;;;;;;;6.95;5.78;;;;;;;2.14;100.00;99092.94;1699492;83;21094;-76
2021/12/07 11:39:48;;;;;;;8.53;6.80;;;;;;;2.16;100.00;99083.73;1699508;84;21047;-77
2021/12/07 11:42:19;;;;;;;6.33;4.20;;;;;;;2.14;100.00;99075.20;1723254;83;21089;-73
2021/12/07 11:45:12;;;;;;;7.58;5.35;;;;;;;2.03;100.00;99059.92;1719302;83;21032;-75
2021/12/07 11:47:45;;;;;;;;;;;;;;;1.99;100.00;99063.21;1721478;83;21496;-76
2021/12/07 11:50:41;;;;;;;7.75;6.95;;;;;;;1.92;100.00;99075.16;1724156;83;21107;-77
2021/12/07 11:53:11;;;;;;;8.20;6.92;;;;;;;1.94;100.00;99071.80;1724116;83;21656;-78
2021/12/07 11:55:40;;;;;;;8.08;6.17;;;;;;;1.97;100.00;99068.72;1722914;82;21010;-82
2021/12/07 11:58:10;;;;;;;5.80;5.30;;;;;;;1.93;100.00;99066.19;1698784;83;21106;-81
2021/12/07 12:00:45;;;;;;;6.40;4.80;;;;;;;1.91;100.00;99066.11;1695553;83;21016;-85
2021/12/07 12:03:14;;;;;;;4.70;4.30;;;;;;;1.89;100.00;99057.53;1694142;84;21114;-77
2021/12/07 12:05:46;;;;;;;8.15;4.85;;;;;;;1.88;100.00;99063.86;1665999;84;47794;-85
2021/12/07 12:08:14;;;;;;;4.62;4.17;;;;;;;1.90;100.00;99059.98;1656697;84;21595;-76
2021/12/07 12:10:45;;;;;;;4.60;3.72;;;;;;;1.86;100.00;99061.44;1681206;83;21095;-82
2021/12/07 12:13:46;;;;;;;4.65;4.08;;;;;;;1.78;100.00;99070.92;1670964;84;21576;-79
2021/12/07 12:16:40;;;;;;;5.05;3.98;;;;;;;1.77;100.00;99071.15;1631386;84;21160;-86
2021/12/07 12:19:32;;;;;;;6.22;5.62;;;;;;;1.83;100.00;99084.88;1688578;83;21568;-86
2021/12/07 12:22:16;;;;;;;4.95;4.37;;;;;;;1.80;100.00;99082.14;1681248;84;21011;-91
2021/12/07 12:24:55;;;;;;;5.95;4.90;;;;;;;1.81;100.00;99081.63;1681880;84;21150;-90
2021/12/07 12:27:39;;;;;;;4.10;3.70;;;;;;;1.84;100.00;99080.70;1689938;84;21020;-93
2021/12/07 12:30:31;;;;;;;4.22;3.52;;;;;;;1.81;100.00;99090.41;1679021;84;21034;-88
2021/12/07 12:33:08;;;;;;;4.55;4.20;;;;;;;1.81;100.00;99093.05;1681706;84;22193;-79
2021/12/07 12:35:53;;;;;;;4.55;4.15;;;;;;;1.81;100.00;99102.34;1656107;84;21543;-77
2021/12/07 12:38:29;;;;;;;6.28;3.92;;;;;;;1.83;100.00;99114.03;1681394;84;21087;-77
2021/12/07 12:41:04;;;;;;;5.15;3.75;;;;;;;1.86;100.00;99110.48;1676704;84;21575;-77
2021/12/07 12:43:50;;;;;;;4.97;3.83;;;;;;;1.82;100.00;99109.78;1676656;84;21399;-77
2021/12/07 12:46:21;;;;;;;6.03;4.17;;;;;;;1.81;100.00;99105.49;1670901;84;21003;-76
2021/12/07 12:48:50;;;;;;;10.43;6.62;;;;;;;1.79;100.00;99115.48;1669176;85;21146;-74
2021/12/07 12:51:18;;;;;;;11.05;7.95;;;;;;;1.78;100.00;99116.48;1670516;85;21091;-80
2021/12/07 12:53:46;;;;;;;5.22;4.72;;;;;;;1.79;100.00;99103.55;1668127;85;22499;-77
2021/12/07 12:56:18;;;;;;;4.05;3.55;;;;;;;1.75;100.00;99098.67;1674899;83;28136;-85
2021/12/07 12:58:50;;;;;;;3.87;3.55;;;;;;;1.70;100.00;99096.34;1675996;84;21027;-76
2021/12/07 13:01:30;;;;;;;5.67;3.33;;;;;;;1.68;100.00;99100.51;1668335;85;21603;-74
2021/12/07 13:04:10;;;;;;;4.97;4.47;;;;;;;1.63;100.00;99096.34;1668842;83;21114;-77
2021/12/07 13:07:01;;;;;;;5.00;4.45;;;;;;;1.60;100.00;99092.78;1670481;85;21981;-81
2021/12/07 13:09:30;;;;;;;3.87;3.55;;;;;;;1.61;100.00;99089.62;1665217;85;22153;-83
2021/12/07 13:12:12;;;;;;;3.47;3.15;;;;;;;1.60;100.00;99087.48;1669263;84;21051;-83
2021/12/07 13:14:46;;;;;;;;;;;;;;;1.54;100.00;99091.46;1662897;85;21364;-79
2021/12/07 13:17:43;;;;;;;4.08;3.67;;;;;;;1.52;100.00;99088.22;1685881;84;20167;-78